Airfield :
LOGIN :

Register | Disclaimer

   EN    FR    IT 

 










Legend :    VFR   Marginal VFR   IFR   Intensive IFR   Very Intensive IFR
Visi :
Ceiling :
>= 8 km
>= 3000ft
5 to 8 km
1000 to 3000 ft
1500m to 5 km
500 to 1000 ft
800 to 1500m
200 to 500 ft
< 800m
< 200 ft
Symbols :   Thunderstorms  Fog  Heavy snow  Heavy precipitations  Wind > 20 kt
SIGMETs :     Misc.  Thunderstorms  Icing  Turbulence  Mountain Waves  Volcanic Ashes






- Airport Elevation : 274 ft
- IATA code : PUY


LDPL - Pula

CURRENT METAR :
  • 181330Z 10016KT CAVOK 25/09 Q1022 NOSIG

EXPIRED METARs :
  • 181300Z 09015KT CAVOK 25/09 Q1022 NOSIG
  • 181230Z 10017KT CAVOK 24/09 Q1022 NOSIG
  • 181200Z 08013KT CAVOK 25/10 Q1022 NOSIG
  • 181130Z 09012KT 050V130 CAVOK 25/10 Q1022 NOSIG
  • 181100Z 09013KT CAVOK 24/10 Q1022 TEMPO 06018G28KT

TAF TAF LDPL
Valid from the 18 at 12:00 until the 19 at 12:00 UTC


181125Z 1812/1912 06015KT CAVOK TX26/1812Z TN13/1904Z
PROB40
TEMPO 1812/1818 06008KT
PROB30
TEMPO 1818/1902 07015G25KT
BECMG 1904/1906 06004KT
BECMG 1910/1912 27006KT



MET'MAP, your aeronautical weather chart ! - Copyright ORBIFLY December 2007 - Disclaimer

ORBIFLY MET'MAP TEAM :

Programming & Development : Alexandra Zaïnal
Original concept : Baudouin d'Aumeries
Technical & hardware support : Manuel Goepfert
Assistance : Marc-Olivier Méhu

Contact : metmap@orbifly.com




SOURCES & CREDITS :

   NOAA